createdAt,value
2022-09-26T00:00:19.855Z,98761.64
2022-09-26T00:01:20.781Z,98764.64
2022-09-26T00:02:19.788Z,98766.64
2022-09-26T00:03:19.716Z,98765.91
2022-09-26T00:04:23.749Z,98766.23
2022-09-26T00:05:20.913Z,98767.3
2022-09-26T00:06:21.894Z,98767.78
2022-09-26T00:07:21.246Z,98765.93
2022-09-26T00:08:21.006Z,98765.61
2022-09-26T00:09:21.972Z,98766.72
2022-09-26T00:10:20.998Z,98768.68
2022-09-26T00:11:22.799Z,98766.62
2022-09-26T00:12:21.048Z,98767.2
2022-09-26T00:13:21.109Z,98765.42
2022-09-26T00:14:23.010Z,98769.19
2022-09-26T00:15:21.110Z,98772.3
2022-09-26T00:16:21.206Z,98770.08
2022-09-26T00:17:21.175Z,98765.81
2022-09-26T00:18:21.237Z,98770.31
2022-09-26T00:19:21.641Z,98769.6
2022-09-26T00:20:21.192Z,98773.59
2022-09-26T00:21:21.958Z,98774.16
2022-09-26T00:22:21.207Z,98775.17
2022-09-26T00:23:21.286Z,98775.88
2022-09-26T00:24:21.256Z,98776.78
2022-09-26T00:25:21.249Z,98776.96
2022-09-26T00:26:22.240Z,98776.7
2022-09-26T00:27:21.300Z,98778.59
2022-09-26T00:28:21.349Z,98779.94
2022-09-26T00:29:21.563Z,98780.52
2022-09-26T00:30:21.466Z,98778.32
2022-09-26T00:31:23.689Z,98777.8
2022-09-26T00:32:21.407Z,98779.23
2022-09-26T00:33:21.445Z,98777.17
2022-09-26T00:34:21.461Z,98780.55
2022-09-26T00:35:21.595Z,98774.07
2022-09-26T00:36:26.882Z,98778.76
2022-09-26T00:37:23.477Z,98775.66
2022-09-26T00:38:23.566Z,98780.25
2022-09-26T00:39:23.544Z,98784.17
2022-09-26T00:40:23.589Z,98777.69
2022-09-26T00:41:23.553Z,98774.49
2022-09-26T00:42:23.541Z,98775.81
2022-09-26T00:43:27.454Z,98776.75
2022-09-26T00:45:30.106Z,98775.12
2022-09-26T00:47:43.930Z,98774.92
2022-09-26T00:48:36.867Z,98772.07
2022-09-26T00:49:38.305Z,98773.64
2022-09-26T00:50:37.580Z,98775.29
2022-09-26T00:51:39.011Z,98776
2022-09-26T00:52:44.581Z,98775.21
2022-09-26T00:53:39.177Z,98780.39
2022-09-26T00:54:38.673Z,98778.89
2022-09-26T00:55:38.487Z,98776.56
2022-09-26T00:56:38.270Z,98776.38
2022-09-26T00:57:38.796Z,98779.29
2022-09-26T00:58:41.107Z,98776.58
2022-09-26T00:59:41.524Z,98774.31
2022-09-26T01:00:42.240Z,98774.11
2022-09-26T01:01:39.346Z,98772.7
2022-09-26T01:02:39.553Z,98772.67
2022-09-26T01:03:40.873Z,98770.77
2022-09-26T01:04:40.701Z,98768.94
2022-09-26T01:05:39.519Z,98767.83
2022-09-26T01:06:39.291Z,98769.83
2022-09-26T01:07:39.471Z,98775.72
2022-09-26T01:08:41.667Z,98776.66
2022-09-26T01:09:39.481Z,98773.95
2022-09-26T01:10:39.336Z,98773.95
2022-09-26T01:11:40.409Z,98778.13
2022-09-26T01:12:39.487Z,98775.7
2022-09-26T01:13:39.502Z,98775.84
2022-09-26T01:14:41.079Z,98775.16
2022-09-26T01:15:39.371Z,98779.34
2022-09-26T01:16:41.119Z,98777.29
2022-09-26T01:17:41.276Z,98775
2022-09-26T01:18:39.749Z,98778.68
2022-09-26T01:23:04.744Z,98768.84
2022-09-26T01:27:17.472Z,98774.64
2022-09-26T01:28:18.421Z,98772.42
2022-09-26T01:30:16.436Z,98775.44
2022-09-26T01:34:32.701Z,98775.73
2022-09-26T01:44:04.105Z,98777.95
2022-09-26T01:45:04.983Z,98775.72
2022-09-26T01:54:24.456Z,98765.44
2022-09-26T01:56:25.345Z,98763.89
2022-09-26T01:58:35.194Z,98764.09
2022-09-26T01:59:37.054Z,98760.53
2022-09-26T02:00:29.485Z,98762.14
2022-09-26T02:01:31.106Z,98763.78
2022-09-26T02:02:30.525Z,98761.55
2022-09-26T02:03:31.463Z,98762.73
2022-09-26T02:04:34.854Z,98763.34
2022-09-26T02:05:33.229Z,98764.5
2022-09-26T02:06:35.386Z,98767.09
2022-09-26T02:07:44.175Z,98767.08
2022-09-26T02:08:40.926Z,98766.91
2022-09-26T02:10:49.194Z,98763.76
2022-09-26T02:11:43.463Z,98764.84
2022-09-26T02:12:43.595Z,98767.81
2022-09-26T02:14:43.190Z,98768.69
2022-09-26T02:15:43.922Z,98768.83
2022-09-26T02:16:48.267Z,98765.19
2022-09-26T02:17:48.044Z,98764.89
2022-09-26T02:18:49.262Z,98766.54
2022-09-26T02:19:52.541Z,98767.06
2022-09-26T02:20:56.054Z,98767.16
2022-09-26T02:21:53.195Z,98766.76
2022-09-26T02:22:53.033Z,98762.23
2022-09-26T02:23:53.498Z,98760.66
2022-09-26T02:24:53.182Z,98764.77
2022-09-26T02:25:52.828Z,98766.28
2022-09-26T02:26:53.755Z,98760.68
2022-09-26T02:27:52.825Z,98765.42
2022-09-26T02:28:52.827Z,98758.67
2022-09-26T02:29:53.572Z,98761.16
2022-09-26T02:30:54.260Z,98762.2
2022-09-26T02:31:56.422Z,98765.63
2022-09-26T02:32:53.160Z,98762.17
2022-09-26T02:33:53.396Z,98765.73
2022-09-26T02:34:54.075Z,98767.88
2022-09-26T02:35:53.476Z,98771.56
2022-09-26T02:36:53.864Z,98771.41
2022-09-26T02:37:53.517Z,98769.69
2022-09-26T02:38:53.285Z,98766.65
2022-09-26T02:39:53.460Z,98766.31
2022-09-26T02:40:59.770Z,98763.52
2022-09-26T02:43:06.638Z,98765.16
2022-09-26T02:44:12.383Z,98767.15
2022-09-26T02:45:16.927Z,98765.14
2022-09-26T02:50:28.484Z,98768.62
2022-09-26T02:51:29.923Z,98766.55
2022-09-26T03:03:55.313Z,98756.3
2022-09-26T03:05:57.425Z,98754.61
2022-09-26T03:06:57.922Z,98748.23
2022-09-26T03:07:58.001Z,98748.81
2022-09-26T03:08:56.038Z,98750.67
2022-09-26T03:09:55.534Z,98751.94
2022-09-26T03:10:55.997Z,98749.79
2022-09-26T03:11:55.109Z,98751.23
2022-09-26T03:12:56.595Z,98747.06
2022-09-26T03:13:55.896Z,98751.75
2022-09-26T03:14:58.544Z,98751.23
2022-09-26T03:15:57.313Z,98749.3
2022-09-26T03:16:55.361Z,98751.06
2022-09-26T03:17:56.539Z,98746.52
2022-09-26T03:18:57.155Z,98749.55
2022-09-26T03:19:59.758Z,98750.02
2022-09-26T03:20:56.125Z,98748.02
2022-09-26T03:21:56.394Z,98746.52
2022-09-26T03:22:56.160Z,98747.58
2022-09-26T03:23:56.144Z,98748.98
2022-09-26T03:24:57.911Z,98747.52
2022-09-26T03:27:02.126Z,98744.5
2022-09-26T03:28:00.735Z,98746.48
2022-09-26T03:29:00.675Z,98744.69
2022-09-26T03:30:00.740Z,98747.79
2022-09-26T03:31:00.704Z,98742.82
2022-09-26T03:32:01.589Z,98746.41
2022-09-26T03:33:00.742Z,98743.88
2022-09-26T03:34:00.745Z,98748.31
2022-09-26T03:35:00.828Z,98747.19
2022-09-26T03:36:03.919Z,98747.81
2022-09-26T03:37:00.778Z,98746.41
2022-09-26T03:38:00.788Z,98745.84
2022-09-26T03:39:00.794Z,98746.91
2022-09-26T03:40:04.791Z,98745.77
2022-09-26T03:41:01.347Z,98747.7
2022-09-26T03:42:00.982Z,98744.91
2022-09-26T03:43:01.042Z,98743.19
2022-09-26T03:44:01.500Z,98740.81
2022-09-26T03:45:01.728Z,98741.48
2022-09-26T03:46:05.288Z,98742.33
2022-09-26T03:47:01.842Z,98746.59
2022-09-26T03:48:02.301Z,98746.67
2022-09-26T03:49:01.641Z,98743.16
2022-09-26T03:50:01.631Z,98739.82
2022-09-26T03:51:03.009Z,98749.31
2022-09-26T03:52:02.107Z,98744.06
2022-09-26T03:53:01.703Z,98744.64
2022-09-26T03:54:01.924Z,98742.88
2022-09-26T03:55:01.701Z,98744.42
2022-09-26T03:57:03.934Z,98747.11
2022-09-26T03:58:03.892Z,98747.48
2022-09-26T03:59:03.412Z,98746.03
2022-09-26T04:00:03.947Z,98743.55
2022-09-26T04:01:07.139Z,98740.44
2022-09-26T04:02:03.605Z,98742.51
2022-09-26T04:03:03.560Z,98744.56
2022-09-26T04:04:03.521Z,98746.89
2022-09-26T04:05:04.118Z,98749.28
2022-09-26T04:06:04.137Z,98747.94
2022-09-26T04:07:03.511Z,98746.45
2022-09-26T04:08:03.539Z,98749.2
2022-09-26T04:09:03.657Z,98752.05
2022-09-26T04:10:03.944Z,98748.01
2022-09-26T04:11:05.300Z,98746.02
2022-09-26T04:12:03.634Z,98748.62
2022-09-26T04:13:03.580Z,98747.43
2022-09-26T04:14:03.896Z,98747.19
2022-09-26T04:15:04.601Z,98746.12
2022-09-26T04:16:04.258Z,98751.56
2022-09-26T04:17:03.627Z,98749.8
2022-09-26T04:18:03.668Z,98748.22
2022-09-26T04:19:04.198Z,98751.24
2022-09-26T04:20:04.417Z,98753.11
2022-09-26T04:21:09.874Z,98752.47
2022-09-26T04:22:06.549Z,98757.73
2022-09-26T04:23:06.597Z,98755.16
2022-09-26T04:24:14.022Z,98752.42
2022-09-26T04:25:10.226Z,98751.34
2022-09-26T04:26:12.058Z,98755.55
2022-09-26T04:27:10.243Z,98752.49
2022-09-26T04:28:10.232Z,98754.21
2022-09-26T04:29:10.704Z,98752.26
2022-09-26T04:30:10.841Z,98753.22
2022-09-26T04:31:10.821Z,98757.88
2022-09-26T04:32:10.949Z,98758.36
2022-09-26T04:33:10.345Z,98758.39
2022-09-26T04:34:10.940Z,98762.53
2022-09-26T04:35:10.338Z,98759.69
2022-09-26T04:36:12.123Z,98756.91
2022-09-26T04:37:10.377Z,98760.17
2022-09-26T04:38:10.360Z,98766.83
2022-09-26T04:39:10.691Z,98762.73
2022-09-26T04:40:10.801Z,98759.7
2022-09-26T04:41:16.851Z,98762.84
2022-09-26T04:42:13.058Z,98764.16
2022-09-26T04:43:13.105Z,98763.78
2022-09-26T04:44:13.156Z,98766.33
2022-09-26T04:45:13.096Z,98760.41
2022-09-26T04:46:22.859Z,98758.14
2022-09-26T04:47:15.955Z,98761.48
2022-09-26T04:48:15.979Z,98759.62
2022-09-26T04:49:16.151Z,98762.41
2022-09-26T04:50:16.387Z,98763.84
2022-09-26T04:51:16.834Z,98764.59
2022-09-26T04:52:16.049Z,98767.02
2022-09-26T04:53:16.389Z,98761.2
2022-09-26T04:54:16.243Z,98754.37
2022-09-26T04:55:16.433Z,98759.12
2022-09-26T04:56:16.821Z,98757.61
2022-09-26T04:57:19.737Z,98759.16
2022-09-26T04:58:16.822Z,98759.77
2022-09-26T04:59:16.464Z,98759.2
2022-09-26T05:00:16.672Z,98760.93
2022-09-26T05:01:19.075Z,98761.89
2022-09-26T05:02:17.761Z,98763.27
2022-09-26T05:03:17.650Z,98761.81
2022-09-26T05:04:17.629Z,98763.38
2022-09-26T05:05:17.673Z,98769
2022-09-26T05:06:18.023Z,98771.62
2022-09-26T05:07:17.740Z,98770.86
2022-09-26T05:08:17.751Z,98771.56
2022-09-26T05:09:17.727Z,98767.92
2022-09-26T05:10:17.758Z,98770.36
2022-09-26T05:11:18.173Z,98770.1
2022-09-26T05:12:17.771Z,98773.55
2022-09-26T05:13:17.851Z,98771.8
2022-09-26T05:14:18.012Z,98770.91
2022-09-26T05:15:17.806Z,98769.21
2022-09-26T05:16:18.037Z,98771.16
2022-09-26T05:17:17.839Z,98768.16
2022-09-26T05:18:17.891Z,98769
2022-09-26T05:19:17.900Z,98771.11
2022-09-26T05:20:17.978Z,98770.18
2022-09-26T05:21:17.958Z,98773.16
2022-09-26T05:22:17.899Z,98778.7
2022-09-26T05:23:19.526Z,98773.58
2022-09-26T05:24:17.958Z,98775.84
2022-09-26T05:25:17.988Z,98772.61
2022-09-26T05:27:19.852Z,98771.49
2022-09-26T05:28:20.077Z,98773.25
2022-09-26T05:29:19.969Z,98774.86
2022-09-26T05:30:19.936Z,98772.47
2022-09-26T05:31:19.941Z,98771.97
2022-09-26T05:32:19.885Z,98766.78
2022-09-26T05:33:20.083Z,98764.55
2022-09-26T05:34:20.507Z,98764.11
2022-09-26T05:35:19.933Z,98764.8
2022-09-26T05:36:19.915Z,98765.62
2022-09-26T05:37:19.961Z,98764.39
2022-09-26T05:38:19.975Z,98764.22
2022-09-26T05:39:20.031Z,98757.72
2022-09-26T05:40:20.095Z,98761.95
2022-09-26T05:41:20.544Z,98757.36
2022-09-26T05:42:20.041Z,98759.16
2022-09-26T05:43:20.038Z,98760.27
2022-09-26T05:44:20.344Z,98761.33
2022-09-26T05:45:20.065Z,98760.34
2022-09-26T05:46:20.181Z,98763.92
2022-09-26T05:47:20.142Z,98762.14
2022-09-26T05:48:20.138Z,98765.08
2022-09-26T05:49:20.189Z,98765.49
2022-09-26T05:50:20.163Z,98766.06
2022-09-26T05:51:20.174Z,98771.58
2022-09-26T05:52:20.183Z,98771.53
2022-09-26T05:53:20.492Z,98770.05
2022-09-26T05:54:20.258Z,98771.54
2022-09-26T05:55:20.253Z,98773.14
2022-09-26T05:56:20.529Z,98774.17
2022-09-26T05:57:20.297Z,98775.84
2022-09-26T05:58:20.305Z,98778.38
2022-09-26T05:59:20.330Z,98776.44
2022-09-26T06:00:20.581Z,98777.4
2022-09-26T06:01:20.496Z,98776.95
2022-09-26T06:02:21.148Z,98777.58
2022-09-26T06:03:20.415Z,98777.86
2022-09-26T06:04:20.413Z,98775.81
2022-09-26T06:05:20.478Z,98778.12
2022-09-26T06:06:20.467Z,98780.81
2022-09-26T06:07:20.444Z,98777.9
2022-09-26T06:08:20.450Z,98775.61
2022-09-26T06:09:20.486Z,98776.41
2022-09-26T06:10:20.526Z,98775.78
2022-09-26T06:11:21.432Z,98775.33
2022-09-26T06:12:20.522Z,98775.31
2022-09-26T06:13:20.584Z,98775.48
2022-09-26T06:14:20.573Z,98778.42
2022-09-26T06:15:20.592Z,98777.89
2022-09-26T06:16:21.334Z,98779.44
2022-09-26T06:17:20.593Z,98780.98
2022-09-26T06:18:20.978Z,98780.31
2022-09-26T06:19:22.932Z,98779.73
2022-09-26T06:20:20.649Z,98778.25
2022-09-26T06:21:20.890Z,98778.55
2022-09-26T06:22:20.716Z,98779.33
2022-09-26T06:23:20.722Z,98780.7
2022-09-26T06:24:20.705Z,98776.77
2022-09-26T06:25:20.954Z,98777.69
2022-09-26T06:26:22.045Z,98775.83
2022-09-26T06:27:20.972Z,98776.04
2022-09-26T06:28:20.844Z,98778.16
2022-09-26T06:29:20.810Z,98777.2
2022-09-26T06:30:20.910Z,98778.31
2022-09-26T06:31:20.864Z,98781.55
2022-09-26T06:32:21.050Z,98781.44
2022-09-26T06:33:21.549Z,98781.41
2022-09-26T06:34:21.078Z,98782.47
2022-09-26T06:35:21.554Z,98780.89
2022-09-26T06:36:21.654Z,98785.39
2022-09-26T06:37:20.944Z,98782.51
2022-09-26T06:38:20.927Z,98785.62
2022-09-26T06:39:20.957Z,98788.73
2022-09-26T06:40:21.076Z,98786.65
2022-09-26T06:41:21.014Z,98788.46
2022-09-26T06:42:21.050Z,98785.88
2022-09-26T06:43:21.241Z,98787.44
2022-09-26T06:44:21.042Z,98790.2
2022-09-26T06:45:21.263Z,98788.84
2022-09-26T06:46:21.297Z,98787.98
2022-09-26T06:47:21.107Z,98789.73
2022-09-26T06:48:24.505Z,98787.72
2022-09-26T06:49:21.135Z,98785.59
2022-09-26T06:50:22.128Z,98785.34
2022-09-26T06:51:21.169Z,98787.65
2022-09-26T06:52:21.229Z,98789.57
2022-09-26T06:53:21.256Z,98788.11
2022-09-26T06:54:21.196Z,98786.47
2022-09-26T06:55:21.241Z,98785.26
2022-09-26T06:56:21.516Z,98786.27
2022-09-26T06:57:21.630Z,98788.16
2022-09-26T06:58:21.340Z,98785.89
2022-09-26T06:59:21.321Z,98783.45
2022-09-26T07:00:21.310Z,98785.34
2022-09-26T07:01:21.629Z,98785.41
2022-09-26T07:02:21.441Z,98786.97
2022-09-26T07:03:21.403Z,98786.62
2022-09-26T07:04:21.385Z,98785.12
2022-09-26T07:05:22.357Z,98786.22
2022-09-26T07:06:21.386Z,98790.48
2022-09-26T07:07:21.433Z,98791
2022-09-26T07:08:32.368Z,98792.25
2022-09-26T07:09:22.629Z,98791.45
2022-09-26T07:10:22.641Z,98787.89
2022-09-26T07:12:24.204Z,98785.36
2022-09-26T07:13:24.110Z,98792.23
2022-09-26T07:14:23.892Z,98788.16
2022-09-26T07:15:23.897Z,98791.86
2022-09-26T07:16:23.975Z,98790.64
2022-09-26T07:17:23.926Z,98792.7
2022-09-26T07:18:24.679Z,98790.34
2022-09-26T07:19:23.944Z,98797
2022-09-26T07:20:24.048Z,98791.59
2022-09-26T07:21:24.013Z,98795.08
2022-09-26T07:22:24.006Z,98798.28
2022-09-26T07:23:24.019Z,98791.77
2022-09-26T07:24:24.308Z,98796.27
2022-09-26T07:25:24.060Z,98799.8
2022-09-26T07:26:24.335Z,98793.49
2022-09-26T07:27:24.097Z,98792.61
2022-09-26T07:28:24.320Z,98795.35
2022-09-26T07:29:24.175Z,98794.12
2022-09-26T07:30:24.552Z,98795.27
2022-09-26T07:31:24.285Z,98794.44
2022-09-26T07:32:24.752Z,98795.97
2022-09-26T07:33:24.406Z,98797.22
2022-09-26T07:34:24.191Z,98794.62
2022-09-26T07:35:24.439Z,98799.57
2022-09-26T07:36:24.249Z,98797.3
2022-09-26T07:37:24.269Z,98800.28
2022-09-26T07:38:24.493Z,98800.32
2022-09-26T07:39:24.372Z,98801.31
2022-09-26T07:40:24.603Z,98803.1
2022-09-26T07:41:24.539Z,98801.75
2022-09-26T07:42:24.501Z,98804.45
2022-09-26T07:43:42.796Z,98803.48
2022-09-26T07:45:29.652Z,98803.62
2022-09-26T07:46:26.877Z,98803.12
2022-09-26T07:47:26.618Z,98805.19
2022-09-26T07:48:26.652Z,98805.09
2022-09-26T07:49:26.695Z,98808.08
2022-09-26T07:50:26.678Z,98806.34
2022-09-26T07:51:26.760Z,98806.75
2022-09-26T07:52:27.838Z,98802.69
2022-09-26T07:53:27.770Z,98805.6
2022-09-26T07:54:26.754Z,98804.83
2022-09-26T07:55:28.143Z,98800.94
2022-09-26T07:56:26.890Z,98799.16
2022-09-26T07:57:26.805Z,98803.45
2022-09-26T07:58:26.830Z,98799.66
2022-09-26T07:59:26.861Z,98799.62
2022-09-26T08:00:26.851Z,98801.14
2022-09-26T08:01:26.942Z,98797.27
2022-09-26T08:02:28.065Z,98797.51
2022-09-26T08:03:27.871Z,98795.25
2022-09-26T08:04:26.891Z,98794.42
2022-09-26T08:05:27.256Z,98795.59
2022-09-26T08:06:27.155Z,98794.53
2022-09-26T08:07:26.938Z,98795.11
2022-09-26T08:08:27.150Z,98796.08
2022-09-26T08:09:26.994Z,98796.05
2022-09-26T08:10:27.028Z,98794.05
2022-09-26T08:11:27.061Z,98793.88
2022-09-26T08:12:27.273Z,98795.53
2022-09-26T08:13:28.159Z,98795.55
2022-09-26T08:14:27.047Z,98801.36
2022-09-26T08:15:27.306Z,98797.27
2022-09-26T08:16:27.418Z,98799.12
2022-09-26T08:17:29.445Z,98800.6
2022-09-26T08:18:27.148Z,98803.38
2022-09-26T08:19:27.150Z,98800.3
2022-09-26T08:20:31.914Z,98796.45
2022-09-26T08:21:28.765Z,98798.44
2022-09-26T08:22:28.491Z,98797.23
2022-09-26T08:23:28.530Z,98798.55
2022-09-26T08:24:28.521Z,98796.88
2022-09-26T08:25:28.556Z,98798.15
2022-09-26T08:26:28.542Z,98794.7
2022-09-26T08:27:31.810Z,98799.44
2022-09-26T08:28:28.833Z,98793.17
2022-09-26T08:29:29.088Z,98794.35
2022-09-26T08:30:28.966Z,98794.77
2022-09-26T08:31:28.778Z,98794.3
2022-09-26T08:32:28.631Z,98793.94
2022-09-26T08:33:29.081Z,98789.03
2022-09-26T08:34:28.764Z,98790.3
2022-09-26T08:35:28.889Z,98796.08
2022-09-26T08:36:28.702Z,98795.02
2022-09-26T08:37:28.988Z,98791.2
2022-09-26T08:38:28.764Z,98793.53
2022-09-26T08:39:33.119Z,98792.06
2022-09-26T08:47:48.299Z,98789.79
2022-09-26T08:50:52.023Z,98792.2
2022-09-26T08:51:51.244Z,98794.19
2022-09-26T08:53:57.416Z,98793.12
2022-09-26T08:54:55.345Z,98793.86
2022-09-26T08:55:54.804Z,98793.97
2022-09-26T08:56:57.355Z,98790.33
2022-09-26T08:57:55.434Z,98792.11
2022-09-26T08:58:55.463Z,98792.59
2022-09-26T08:59:53.921Z,98793.02
2022-09-26T09:00:59.777Z,98792.88
2022-09-26T09:02:00.036Z,98793.36
2022-09-26T09:04:12.667Z,98794.25
2022-09-26T09:06:10.675Z,98792.99
2022-09-26T09:07:17.026Z,98793.59
2022-09-26T09:08:13.616Z,98793.52
2022-09-26T09:09:14.264Z,98794.7
2022-09-26T09:10:16.424Z,98793.97
2022-09-26T09:12:22.985Z,98794.55
2022-09-26T09:13:26.372Z,98798.73
2022-09-26T09:31:08.452Z,98804.38
2022-09-26T09:32:05.858Z,98795.56
2022-09-26T09:34:11.349Z,98798.64
2022-09-26T09:35:12.995Z,98800
2022-09-26T09:36:14.742Z,98797.09
2022-09-26T09:37:17.004Z,98797.92
2022-09-26T09:38:17.782Z,98797.91
2022-09-26T09:39:26.653Z,98800.14
2022-09-26T09:40:27.308Z,98797.59
2022-09-26T09:42:27.892Z,98802.19
2022-09-26T09:45:34.879Z,98795.75
2022-09-26T09:47:36.230Z,98795.88
2022-09-26T09:48:32.860Z,98793.98
2022-09-26T09:49:32.678Z,98793.47
2022-09-26T10:00:18.722Z,98798.64
2022-09-26T10:06:13.674Z,98796.73
2022-09-26T10:07:14.784Z,98799.22
2022-09-26T10:08:18.455Z,98800.02
2022-09-26T10:12:25.565Z,98802.05
2022-09-26T10:13:24.831Z,98805
2022-09-26T10:14:33.454Z,98801.2
2022-09-26T10:15:25.422Z,98803.72
2022-09-26T10:16:25.660Z,98802.88
2022-09-26T10:17:25.680Z,98806.28
2022-09-26T10:18:26.681Z,98809.47
2022-09-26T10:19:35.100Z,98806.47
2022-09-26T10:21:30.837Z,98806.47
2022-09-26T10:22:36.375Z,98807.73
2022-09-26T10:23:38.291Z,98811.72
2022-09-26T10:24:35.748Z,98805.37
2022-09-26T10:25:34.750Z,98809.43
2022-09-26T10:26:35.368Z,98803.75
2022-09-26T10:27:39.323Z,98802.41
2022-09-26T10:28:42.953Z,98805.13
2022-09-26T10:29:40.221Z,98805.83
2022-09-26T10:30:46.870Z,98811.96
2022-09-26T10:31:43.473Z,98810.55
2022-09-26T10:32:45.149Z,98808.83
2022-09-26T10:33:44.641Z,98810.98
2022-09-26T10:34:43.621Z,98810.22
2022-09-26T10:35:44.499Z,98814.95
2022-09-26T10:36:43.700Z,98810.84
2022-09-26T10:37:43.317Z,98807.97
2022-09-26T10:39:54.747Z,98810.36
2022-09-26T10:40:53.267Z,98808.81
2022-09-26T10:41:56.336Z,98806.52
2022-09-26T10:42:52.517Z,98808.27
2022-09-26T10:43:53.762Z,98806.71
2022-09-26T10:44:54.974Z,98807.47
2022-09-26T10:45:53.918Z,98808.99
2022-09-26T10:46:54.540Z,98806.53
2022-09-26T10:47:53.824Z,98807.17
2022-09-26T10:48:54.242Z,98801.03
2022-09-26T10:50:54.872Z,98805.91
2022-09-26T10:52:01.391Z,98802.77
2022-09-26T10:53:04.112Z,98806.98
2022-09-26T10:54:04.361Z,98800.73
2022-09-26T10:55:05.050Z,98803.33
2022-09-26T10:56:06.988Z,98798.31
2022-09-26T10:57:03.484Z,98800.26
2022-09-26T10:58:11.383Z,98800.31
2022-09-26T10:59:05.075Z,98798.36
2022-09-26T11:00:05.624Z,98800.12
2022-09-26T11:01:05.004Z,98800.77
2022-09-26T11:02:05.389Z,98798.14
2022-09-26T11:03:05.693Z,98793.62
2022-09-26T11:05:07.806Z,98794.77
2022-09-26T11:07:20.180Z,98799.59
2022-09-26T11:08:18.423Z,98799.64
2022-09-26T11:09:20.076Z,98804.41
2022-09-26T11:10:22.567Z,98798.03
2022-09-26T11:11:19.606Z,98800.31
2022-09-26T11:12:26.167Z,98806.33
2022-09-26T11:13:24.088Z,98804.38
2022-09-26T11:14:28.047Z,98800.7
2022-09-26T11:15:25.277Z,98797.58
2022-09-26T11:16:25.215Z,98794.98
2022-09-26T11:22:43.118Z,98794.58
2022-09-26T11:24:46.449Z,98799.39
2022-09-26T11:27:50.744Z,98794.59
2022-09-26T11:28:53.283Z,98797.94
2022-09-26T11:30:55.840Z,98797.99
2022-09-26T11:31:56.003Z,98797.05
2022-09-26T11:32:56.008Z,98794.97
2022-09-26T11:33:57.610Z,98793.14
2022-09-26T11:34:54.753Z,98793.02
2022-09-26T11:44:34.369Z,98791.53
2022-09-26T11:47:39.508Z,98797.75
2022-09-26T11:52:49.694Z,98791.42
2022-09-26T11:59:15.804Z,98797.67
2022-09-26T12:00:12.747Z,98787.43
2022-09-26T12:05:27.012Z,98792.16
2022-09-26T12:11:37.528Z,98790.02
2022-09-26T12:12:37.004Z,98785.47
2022-09-26T12:15:43.935Z,98788.31
2022-09-26T12:18:52.404Z,98791.02
2022-09-26T12:19:57.358Z,98791.28
2022-09-26T12:24:02.029Z,98789.46
2022-09-26T12:32:28.629Z,98784.38
2022-09-26T12:33:37.669Z,98782.99
2022-09-26T12:53:28.792Z,98782.27
2022-09-26T13:07:18.385Z,98778.04
2022-09-26T13:10:10.052Z,98778.92
2022-09-26T13:17:33.164Z,98773.7
2022-09-26T13:18:34.630Z,98771.53
2022-09-26T13:19:32.442Z,98770.79
2022-09-26T13:20:33.947Z,98775.5
2022-09-26T13:23:40.336Z,98770.17
2022-09-26T13:24:45.170Z,98771.72
2022-09-26T13:26:48.152Z,98775.24
2022-09-26T13:29:58.305Z,98771.94
2022-09-26T13:30:53.133Z,98776.1
2022-09-26T13:33:56.662Z,98770.94
2022-09-26T13:35:57.429Z,98773.27
2022-09-26T13:36:57.872Z,98773.82
2022-09-26T13:39:04.094Z,98779.38
2022-09-26T13:42:18.246Z,98776.96
2022-09-26T13:47:21.423Z,98776.36
2022-09-26T13:50:24.273Z,98775
2022-09-26T13:51:25.110Z,98770.09
2022-09-26T13:54:30.264Z,98772
2022-09-26T13:55:26.485Z,98771.09
2022-09-26T13:57:36.202Z,98774.19
2022-09-26T13:58:38.743Z,98773.27
2022-09-26T14:00:38.821Z,98770.55
2022-09-26T14:01:37.181Z,98770.84
2022-09-26T14:02:36.948Z,98770.84
2022-09-26T14:03:37.534Z,98771.33
2022-09-26T14:04:37.539Z,98772.46
2022-09-26T14:09:54.171Z,98775.68
2022-09-26T14:10:52.885Z,98773.38
2022-09-26T14:11:51.158Z,98772.23
2022-09-26T14:13:03.679Z,98776.45
2022-09-26T14:15:57.224Z,98778.46
2022-09-26T14:16:55.711Z,98776.59
2022-09-26T14:19:55.888Z,98775.03
2022-09-26T14:23:00.709Z,98778.09
2022-09-26T14:26:09.691Z,98779.78
2022-09-26T14:33:19.116Z,98789.11
2022-09-26T14:34:20.893Z,98786.38
2022-09-26T14:36:24.543Z,98788.34
2022-09-26T14:38:24.196Z,98790.66
2022-09-26T14:40:33.896Z,98784.14
2022-09-26T14:41:32.794Z,98787.36
2022-09-26T14:42:34.371Z,98788.38
2022-09-26T14:43:31.110Z,98787.42
2022-09-26T14:44:36.364Z,98790.04
2022-09-26T14:46:40.567Z,98794.76
2022-09-26T14:47:39.463Z,98795.38
2022-09-26T14:48:39.025Z,98793.3
2022-09-26T14:49:37.591Z,98795.47
2022-09-26T14:51:42.401Z,98795.96
2022-09-26T14:52:41.468Z,98795.39
2022-09-26T14:53:49.033Z,98801.34
2022-09-26T14:54:46.221Z,98796.81
2022-09-26T14:56:50.907Z,98800.58
2022-09-26T14:57:48.852Z,98798.11
2022-09-26T14:58:50.804Z,98793.23
2022-09-26T14:59:49.230Z,98799.16
2022-09-26T15:00:49.003Z,98795.74
2022-09-26T15:01:49.055Z,98792.85
2022-09-26T15:02:48.968Z,98795.09
2022-09-26T15:03:50.889Z,98794.68
2022-09-26T15:04:52.930Z,98794.17
2022-09-26T15:05:49.852Z,98796.36
2022-09-26T15:06:54.258Z,98795.46
2022-09-26T15:07:54.457Z,98797.85
2022-09-26T15:08:52.591Z,98799.67
2022-09-26T15:10:05.233Z,98798.71
2022-09-26T15:10:53.494Z,98799.03
2022-09-26T15:11:54.688Z,98794.62
2022-09-26T15:13:02.967Z,98796.96
2022-09-26T15:13:55.264Z,98798.41
2022-09-26T15:16:57.821Z,98796.13
2022-09-26T15:20:05.238Z,98799.7
2022-09-26T15:22:10.627Z,98803.11
2022-09-26T15:26:14.972Z,98799.91
2022-09-26T15:27:18.701Z,98800.08
2022-09-26T15:28:15.083Z,98804.08
2022-09-26T15:29:15.312Z,98799.45
2022-09-26T15:30:19.148Z,98798
2022-09-26T15:33:19.425Z,98801.41
2022-09-26T15:35:22.222Z,98802.69
2022-09-26T15:36:22.284Z,98804.14
2022-09-26T15:38:26.744Z,98801.63
2022-09-26T15:39:37.265Z,98802.02
2022-09-26T15:40:30.282Z,98796.95
2022-09-26T15:41:28.984Z,98797.52
2022-09-26T15:42:29.861Z,98796.74
2022-09-26T15:43:33.914Z,98795.14
2022-09-26T15:44:30.761Z,98790.5
2022-09-26T15:46:32.030Z,98796.19
2022-09-26T15:48:33.138Z,98794.81
2022-09-26T15:49:32.916Z,98801.77
2022-09-26T15:51:39.231Z,98799.15
2022-09-26T15:52:39.813Z,98802.23
2022-09-26T15:53:42.490Z,98802.7
2022-09-26T15:54:38.906Z,98804.34
2022-09-26T15:56:44.640Z,98797.7
2022-09-26T15:57:42.334Z,98804.02
2022-09-26T15:58:51.058Z,98807.17
2022-09-26T15:59:42.514Z,98806.68
2022-09-26T16:00:45.936Z,98808.33
2022-09-26T16:01:43.845Z,98808.75
2022-09-26T16:02:42.892Z,98813.37
2022-09-26T16:03:46.336Z,98810.88
2022-09-26T16:04:42.558Z,98810.95
2022-09-26T16:05:44.636Z,98807.45
2022-09-26T16:06:50.793Z,98808.48
2022-09-26T16:07:48.664Z,98809.19
2022-09-26T16:08:50.870Z,98809.76
2022-09-26T16:09:48.459Z,98811.8
2022-09-26T16:10:52.985Z,98808.97
2022-09-26T16:11:50.700Z,98808.36
2022-09-26T16:12:49.399Z,98807.33
2022-09-26T16:13:51.421Z,98809.89
2022-09-26T16:14:52.060Z,98811.22
2022-09-26T16:15:58.786Z,98809.84
2022-09-26T16:16:50.131Z,98810.76
2022-09-26T16:17:54.003Z,98812.91
2022-09-26T16:18:57.700Z,98815.65
2022-09-26T16:19:58.154Z,98812.48
2022-09-26T16:23:04.849Z,98815.94
2022-09-26T16:27:16.020Z,98818.94
2022-09-26T16:29:09.186Z,98823.02